createdAt,value
2022-10-21T00:01:50.209Z,14.73
2022-10-21T00:04:16.975Z,16.00
2022-10-21T00:06:43.688Z,13.10
2022-10-21T00:09:10.490Z,14.40
2022-10-21T00:11:37.325Z,14.10
2022-10-21T00:14:04.325Z,14.45
2022-10-21T00:19:17.710Z,13.27
2022-10-21T00:24:31.089Z,13.60
2022-10-21T00:26:57.818Z,13.52
2022-10-21T00:29:24.544Z,13.93
2022-10-21T00:31:53.823Z,13.68
2022-10-21T00:37:08.276Z,15.20
2022-10-21T00:42:23.213Z,14.63
2022-10-21T00:45:05.031Z,12.43
2022-10-21T00:47:39.491Z,13.60
2022-10-21T00:52:59.800Z,14.38
2022-10-21T00:58:18.156Z,13.75
2022-10-21T01:03:32.389Z,13.40
2022-10-21T01:08:50.388Z,13.30
2022-10-21T01:11:19.526Z,13.95
2022-10-21T01:14:05.158Z,15.70
2022-10-21T01:16:58.763Z,13.32
2022-10-21T01:17:51.161Z,0
2022-10-21T01:19:56.120Z,14.55
2022-10-21T01:22:30.231Z,16.25
2022-10-21T01:25:54.151Z,14.82
2022-10-21T01:28:37.005Z,15.25
2022-10-21T01:37:38.955Z,15.40
2022-10-21T01:40:16.826Z,17.17
2022-10-21T01:42:52.658Z,15.27
2022-10-21T01:45:31.456Z,15.07
2022-10-21T01:48:07.530Z,16.13
2022-10-21T01:50:41.854Z,16.70
2022-10-21T01:53:12.560Z,17.83
2022-10-21T01:58:32.760Z,16.50
2022-10-21T02:03:54.907Z,17.27
2022-10-21T02:06:21.736Z,18.13
2022-10-21T02:08:48.641Z,18.55
2022-10-21T02:11:15.888Z,18.15
2022-10-21T02:13:52.008Z,18.88
2022-10-21T02:16:24.089Z,20.08
2022-10-21T02:21:37.673Z,20.93
2022-10-21T02:24:35.354Z,17.45
2022-10-21T02:27:02.222Z,18.95
2022-10-21T02:29:39.218Z,20.23
2022-10-21T02:32:25.585Z,20.40
2022-10-21T02:35:22.832Z,18.27
2022-10-21T02:38:19.398Z,21.43
2022-10-21T02:40:50.564Z,20.98
2022-10-21T02:43:24.433Z,20.25
2022-10-21T02:45:54.116Z,19.77
2022-10-21T02:51:08.498Z,19.95
2022-10-21T02:56:22.912Z,19.20
2022-10-21T03:01:36.335Z,19.70
2022-10-21T03:06:49.735Z,18.63
2022-10-21T03:09:16.450Z,21.08
2022-10-21T03:11:43.181Z,20.85
2022-10-21T03:14:09.911Z,19.92
2022-10-21T03:16:36.596Z,20.60
2022-10-21T03:19:03.320Z,23.58
2022-10-21T03:21:30.071Z,21.17
2022-10-21T03:23:56.795Z,21.83
2022-10-21T03:26:23.485Z,23.25
2022-10-21T03:28:50.197Z,20.83
2022-10-21T03:31:16.946Z,23.30
2022-10-21T03:33:43.722Z,23.55
2022-10-21T03:36:10.435Z,22.33
2022-10-21T03:38:37.142Z,22.45
2022-10-21T03:41:03.959Z,25.67
2022-10-21T03:43:30.657Z,22.60
2022-10-21T03:45:57.394Z,24.80
2022-10-21T03:48:24.089Z,23.60
2022-10-21T03:50:50.794Z,27.20
2022-10-21T03:53:37.929Z,23.77
2022-10-21T03:56:04.447Z,28.25
2022-10-21T03:58:31.168Z,28.25
2022-10-21T04:00:57.887Z,24.58
2022-10-21T04:06:11.250Z,26.73
2022-10-21T04:11:24.689Z,24.80
2022-10-21T04:13:51.425Z,24.97
2022-10-21T04:16:20.877Z,24.42
2022-10-21T04:18:47.769Z,25.30
2022-10-21T04:21:14.923Z,25.65
2022-10-21T04:23:42.257Z,29.05
2022-10-21T04:26:09.318Z,26.80
2022-10-21T04:28:36.078Z,25.58
2022-10-21T04:31:02.895Z,26.35
2022-10-21T04:33:29.687Z,30.20
2022-10-21T04:35:57.130Z,29.50
2022-10-21T04:38:23.835Z,28.60
2022-10-21T04:41:01.364Z,29.33
2022-10-21T04:43:28.804Z,30.23
2022-10-21T04:45:55.883Z,30.60
2022-10-21T04:48:23.024Z,30.42
2022-10-21T04:50:51.579Z,31.58
2022-10-21T04:53:18.584Z,31.33
2022-10-21T04:55:45.517Z,31.35
2022-10-21T04:58:12.527Z,29.52
2022-10-21T05:00:39.269Z,31.23
2022-10-21T05:03:06.016Z,32.77
2022-10-21T05:05:32.887Z,30.23
2022-10-21T05:10:46.469Z,32.17
2022-10-21T05:14:24.417Z,0
2022-10-21T05:16:01.873Z,36.55
2022-10-21T05:18:28.704Z,32.30
2022-10-21T05:20:56.392Z,35.33
2022-10-21T05:23:24.035Z,35.22
2022-10-21T05:25:50.761Z,32.70
2022-10-21T05:28:18.097Z,34.25
2022-10-21T05:30:44.828Z,31.00
2022-10-21T05:33:11.590Z,35.60
2022-10-21T05:35:38.370Z,32.28
2022-10-21T05:38:05.172Z,35.13
2022-10-21T05:40:33.077Z,35.03
2022-10-21T05:45:46.477Z,32.63
2022-10-21T05:50:59.851Z,31.47
2022-10-21T05:56:13.371Z,31.42
2022-10-21T05:58:40.088Z,33.05
2022-10-21T06:01:06.857Z,30.48
2022-10-21T06:03:34.009Z,28.42
2022-10-21T06:08:50.495Z,30.40
2022-10-21T06:14:06.070Z,28.48
2022-10-21T06:16:32.843Z,29.55
2022-10-21T06:18:59.540Z,29.15
2022-10-21T06:21:26.316Z,29.63
2022-10-21T06:23:54.033Z,29.30
2022-10-21T06:26:21.083Z,28.25
2022-10-21T06:28:47.814Z,26.88
2022-10-21T06:31:17.077Z,25.15
2022-10-21T06:33:44.056Z,25.67
2022-10-21T06:36:10.836Z,27.58
2022-10-21T06:38:37.587Z,23.90
2022-10-21T06:41:09.265Z,25.23
2022-10-21T06:43:39.528Z,25.63
2022-10-21T06:48:58.724Z,23.25
2022-10-21T06:53:40.072Z,0
2022-10-21T06:54:12.329Z,23.30
2022-10-21T06:56:39.576Z,24.65
2022-10-21T06:59:06.317Z,22.85
2022-10-21T07:01:47.974Z,25.02
2022-10-21T07:07:06.580Z,25.33
2022-10-21T07:09:01.490Z,0
2022-10-21T07:09:33.507Z,23.75
2022-10-21T07:12:01.439Z,22.65
2022-10-21T07:14:28.326Z,23.03
2022-10-21T07:16:55.055Z,22.73
2022-10-21T07:19:21.771Z,20.50
2022-10-21T07:21:48.535Z,22.20
2022-10-21T07:24:18.748Z,21.75
2022-10-21T07:26:48.385Z,21.17
2022-10-21T07:29:15.151Z,21.55
2022-10-21T07:31:41.884Z,19.38
2022-10-21T07:34:09.252Z,21.17
2022-10-21T07:36:38.989Z,19.30
2022-10-21T07:39:09.482Z,18.25
2022-10-21T07:44:26.741Z,18.42
2022-10-21T07:49:40.868Z,17.30
2022-10-21T07:54:57.775Z,17.10
2022-10-21T07:57:24.497Z,17.83
2022-10-21T07:59:51.226Z,15.05
2022-10-21T08:02:17.968Z,15.40
2022-10-21T08:04:44.706Z,15.80
2022-10-21T08:07:13.219Z,17.70
2022-10-21T08:09:40.760Z,14.77
2022-10-21T08:12:10.348Z,16.45
2022-10-21T08:14:40.225Z,14.00
2022-10-21T08:17:07.010Z,14.23
2022-10-21T08:19:33.743Z,15.32
2022-10-21T08:22:00.469Z,16.40
2022-10-21T08:24:28.052Z,17.05
2022-10-21T08:26:55.041Z,15.25
2022-10-21T08:29:21.767Z,14.98
2022-10-21T08:31:48.526Z,14.98
2022-10-21T08:34:15.273Z,15.10
2022-10-21T08:36:42.092Z,16.30
2022-10-21T08:39:09.436Z,13.98
2022-10-21T08:42:07.310Z,14.93
2022-10-21T08:44:54.127Z,17.42
2022-10-21T08:47:39.187Z,15.18
2022-10-21T08:53:05.083Z,14.70
2022-10-21T08:55:43.604Z,14.60
2022-10-21T08:58:21.097Z,15.57
2022-10-21T09:00:54.699Z,15.85
2022-10-21T09:03:41.230Z,15.70
2022-10-21T09:06:23.866Z,18.65
2022-10-21T09:12:31.200Z,14.37
2022-10-21T09:15:16.676Z,16.58
2022-10-21T09:18:13.710Z,16.80
2022-10-21T09:20:59.504Z,18.50
2022-10-21T09:22:38.126Z,0
2022-10-21T09:26:51.059Z,17.35
2022-10-21T09:29:50.241Z,14.45
2022-10-21T09:32:31.588Z,16.98
2022-10-21T09:35:19.734Z,18.17
2022-10-21T09:37:39.198Z,0
2022-10-21T09:37:51.975Z,18.63
2022-10-21T09:40:21.787Z,21.55
2022-10-21T09:42:48.015Z,0
2022-10-21T09:42:57.018Z,16.30
2022-10-21T09:45:41.513Z,17.10
2022-10-21T09:48:20.130Z,16.73
2022-10-21T09:50:10.121Z,0
2022-10-21T09:50:50.475Z,15.52
2022-10-21T09:53:28.663Z,0
2022-10-21T09:56:24.928Z,15.93
2022-10-21T09:59:10.766Z,15.10
2022-10-21T10:01:39.981Z,15.23
2022-10-21T10:04:10.737Z,17.83
2022-10-21T10:06:44.813Z,14.20
2022-10-21T10:09:16.349Z,14.88
2022-10-21T10:12:06.052Z,13.75
2022-10-21T10:17:23.920Z,13.45
2022-10-21T10:20:05.889Z,16.93
2022-10-21T10:22:35.039Z,14.00
2022-10-21T10:25:15.817Z,14.50
2022-10-21T10:27:48.451Z,15.32
2022-10-21T10:30:16.234Z,14.23
2022-10-21T10:32:44.086Z,14.93
2022-10-21T10:35:29.254Z,12.52
2022-10-21T10:37:57.331Z,15.90
2022-10-21T10:40:32.120Z,15.10
2022-10-21T10:43:06.009Z,14.53
2022-10-21T10:45:33.041Z,14.90
2022-10-21T10:48:01.739Z,14.20
2022-10-21T10:50:45.119Z,15.15
2022-10-21T10:57:01.603Z,17.33
2022-10-21T10:58:28.349Z,0
2022-10-21T10:59:45.090Z,14.18
2022-10-21T11:02:11.745Z,15.67
2022-10-21T11:04:38.410Z,17.33
2022-10-21T11:07:14.697Z,15.98
2022-10-21T11:09:41.814Z,14.68
2022-10-21T11:14:50.284Z,15.60
2022-10-21T11:17:02.078Z,0
2022-10-21T11:17:20.955Z,14.35
2022-10-21T11:18:27.429Z,0
2022-10-21T11:20:10.512Z,15.23
2022-10-21T11:22:37.229Z,14.55
2022-10-21T11:25:42.028Z,14.88
2022-10-21T11:28:33.847Z,13.73
2022-10-21T11:31:07.281Z,13.75
2022-10-21T11:34:01.334Z,14.63
2022-10-21T11:36:47.022Z,14.48
2022-10-21T11:39:26.220Z,13.25
2022-10-21T11:42:07.096Z,12.95
2022-10-21T11:47:55.701Z,14.23
2022-10-21T11:50:41.063Z,15.30
2022-10-21T11:53:22.726Z,14.68
2022-10-21T11:56:13.853Z,15.02
2022-10-21T11:58:59.906Z,13.98
2022-10-21T12:00:01.265Z,0
2022-10-21T12:01:41.738Z,16.67
2022-10-21T12:04:24.288Z,14.00
2022-10-21T12:13:19.970Z,13.35
2022-10-21T12:15:54.116Z,15.75
2022-10-21T12:18:23.195Z,15.85
2022-10-21T12:20:53.345Z,14.25
2022-10-21T12:23:26.569Z,13.43
2022-10-21T12:26:18.201Z,14.90
2022-10-21T12:28:58.669Z,15.68
2022-10-21T12:34:11.945Z,18.13
2022-10-21T12:36:40.661Z,13.77
2022-10-21T12:39:18.121Z,14.43
2022-10-21T12:41:48.369Z,16.83
2022-10-21T12:46:54.290Z,13.90
2022-10-21T12:49:25.729Z,12.80
2022-10-21T12:52:05.195Z,13.35
2022-10-21T12:54:37.883Z,18.40
2022-10-21T12:57:21.819Z,14.03
2022-10-21T12:59:48.788Z,11.63
2022-10-21T13:05:08.778Z,11.70
2022-10-21T13:10:25.662Z,13.40
2022-10-21T13:13:28.274Z,14.68
2022-10-21T13:15:55.468Z,15.30
2022-10-21T13:18:50.244Z,12.43
2022-10-21T13:21:37.015Z,16.40
2022-10-21T13:24:11.987Z,14.13
2022-10-21T13:26:50.968Z,14.38
2022-10-21T13:29:38.544Z,13.43
2022-10-21T13:32:14.362Z,13.60
2022-10-21T13:34:48.680Z,16.35
2022-10-21T13:40:19.320Z,12.93
2022-10-21T13:42:57.306Z,13.70
2022-10-21T13:45:56.270Z,15.00
2022-10-21T13:48:26.068Z,15.85
2022-10-21T13:50:53.238Z,17.63
2022-10-21T13:53:31.685Z,16.02
2022-10-21T13:55:58.388Z,20.27
2022-10-21T14:00:57.916Z,15.33
2022-10-21T14:03:25.845Z,14.70
2022-10-21T14:06:00.911Z,13.98
2022-10-21T14:08:34.648Z,16.50
2022-10-21T14:13:52.008Z,16.45
2022-10-21T14:16:39.077Z,17.00
2022-10-21T14:18:38.818Z,0
2022-10-21T14:19:27.898Z,14.50
2022-10-21T14:19:41.843Z,0
2022-10-21T14:21:57.229Z,17.13
2022-10-21T14:24:35.924Z,17.25
2022-10-21T14:27:03.906Z,16.20
2022-10-21T14:29:34.733Z,14.25
2022-10-21T14:32:03.154Z,15.52
2022-10-21T14:37:07.869Z,21.33
2022-10-21T14:39:37.997Z,18.58
2022-10-21T14:42:09.229Z,18.08
2022-10-21T14:44:36.066Z,16.15
2022-10-21T14:47:02.921Z,15.63
2022-10-21T14:49:45.571Z,16.25
2022-10-21T14:52:36.554Z,15.07
2022-10-21T14:55:09.989Z,17.23
2022-10-21T14:57:52.167Z,14.05
2022-10-21T15:00:30.181Z,16.23
2022-10-21T15:02:58.166Z,16.85
2022-10-21T15:05:46.685Z,17.00
2022-10-21T15:11:08.065Z,15.98
2022-10-21T15:16:25.836Z,17.35
2022-10-21T15:21:31.711Z,17.38
2022-10-21T15:23:59.550Z,23.73
2022-10-21T15:26:28.849Z,18.63
2022-10-21T15:28:56.428Z,17.67
2022-10-21T15:31:28.064Z,16.48
2022-10-21T15:33:56.378Z,17.98
2022-10-21T15:36:23.553Z,17.23
2022-10-21T15:38:50.331Z,19.90
2022-10-21T15:41:20.511Z,18.60
2022-10-21T15:43:56.549Z,17.30
2022-10-21T15:46:24.024Z,20.30
2022-10-21T15:48:50.763Z,18.50
2022-10-21T15:51:17.521Z,20.73
2022-10-21T15:53:44.683Z,23.07
2022-10-21T15:56:19.730Z,18.77
2022-10-21T15:57:01.549Z,0
2022-10-21T15:58:47.748Z,19.60
2022-10-21T16:01:17.104Z,21.38
2022-10-21T16:03:44.970Z,20.88
2022-10-21T16:06:16.070Z,18.55
2022-10-21T16:08:42.972Z,18.40
2022-10-21T16:11:15.246Z,20.30
2022-10-21T16:13:45.905Z,20.55
2022-10-21T16:19:09.339Z,20.23
2022-10-21T16:24:02.790Z,22.33
2022-10-21T16:26:30.393Z,20.27
2022-10-21T16:28:57.904Z,22.17
2022-10-21T16:31:26.934Z,18.65
2022-10-21T16:33:54.310Z,21.13
2022-10-21T16:38:53.381Z,23.88
2022-10-21T16:41:23.542Z,18.40
2022-10-21T16:46:40.801Z,18.58
2022-10-21T16:49:13.458Z,21.58
2022-10-21T16:51:42.167Z,21.25
2022-10-21T16:54:09.968Z,21.48
2022-10-21T16:56:34.726Z,0
2022-10-21T16:59:25.559Z,21.85
2022-10-21T17:01:53.173Z,21.38
2022-10-21T17:07:07.757Z,20.77
2022-10-21T17:12:21.158Z,20.25
2022-10-21T17:17:34.649Z,19.42
2022-10-21T17:20:01.354Z,20.95
2022-10-21T17:22:28.441Z,20.45
2022-10-21T17:24:55.246Z,18.73
2022-10-21T17:27:22.106Z,19.50
2022-10-21T17:29:49.067Z,21.02
2022-10-21T17:32:15.810Z,18.10
2022-10-21T17:34:42.659Z,24.40
2022-10-21T17:37:10.877Z,21.77
2022-10-21T17:39:38.293Z,21.10
2022-10-21T17:42:05.137Z,21.25
2022-10-21T17:44:32.346Z,21.77
2022-10-21T17:46:59.121Z,18.63
2022-10-21T17:49:26.431Z,23.27
2022-10-21T17:51:53.431Z,22.15
2022-10-21T17:54:24.124Z,20.50
2022-10-21T17:59:41.449Z,21.77
2022-10-21T18:02:08.153Z,21.40
2022-10-21T18:04:34.874Z,24.48
2022-10-21T18:07:02.243Z,21.02
2022-10-21T18:09:29.006Z,20.70
2022-10-21T18:11:55.738Z,24.40
2022-10-21T18:13:57.189Z,0
2022-10-21T18:14:22.470Z,18.55
2022-10-21T18:16:49.264Z,24.03
2022-10-21T18:22:04.433Z,23.60
2022-10-21T18:27:17.821Z,21.85
2022-10-21T18:32:31.172Z,26.38
2022-10-21T18:34:57.955Z,23.90
2022-10-21T18:37:24.900Z,26.77
2022-10-21T18:39:55.358Z,24.48
2022-10-21T18:42:24.967Z,23.25
2022-10-21T18:44:52.264Z,23.23
2022-10-21T18:47:19.018Z,23.83
2022-10-21T18:49:45.755Z,27.25
2022-10-21T18:52:12.639Z,22.47
2022-10-21T18:54:39.440Z,22.38
2022-10-21T18:57:06.179Z,26.88
2022-10-21T18:59:32.926Z,23.60
2022-10-21T19:01:59.703Z,24.15
2022-10-21T19:04:26.414Z,24.02
2022-10-21T19:06:53.209Z,22.77
2022-10-21T19:09:23.087Z,24.15
2022-10-21T19:11:50.138Z,27.15
2022-10-21T19:14:17.419Z,25.00
2022-10-21T19:16:45.396Z,26.05
2022-10-21T19:19:13.072Z,25.83
2022-10-21T19:21:40.101Z,25.30
2022-10-21T19:24:07.208Z,26.60
2022-10-21T19:26:36.317Z,28.30
2022-10-21T19:29:10.672Z,27.17
2022-10-21T19:31:38.506Z,25.70
2022-10-21T19:36:53.427Z,24.52
2022-10-21T19:38:47.009Z,0
2022-10-21T19:39:20.544Z,31.27
2022-10-21T19:41:47.715Z,27.45
2022-10-21T19:44:14.749Z,25.50
2022-10-21T19:46:41.536Z,26.35
2022-10-21T19:49:09.160Z,27.70
2022-10-21T19:51:37.275Z,28.10
2022-10-21T19:54:05.930Z,27.80
2022-10-21T19:56:34.477Z,28.13
2022-10-21T19:59:02.125Z,27.05
2022-10-21T20:01:28.991Z,26.80
2022-10-21T20:03:55.963Z,30.85
2022-10-21T20:06:29.150Z,29.70
2022-10-21T20:08:58.509Z,32.60
2022-10-21T20:14:13.534Z,35.03
2022-10-21T20:19:28.350Z,32.88
2022-10-21T20:21:55.098Z,35.22
2022-10-21T20:24:21.831Z,35.75
2022-10-21T20:26:48.574Z,38.88
2022-10-21T20:29:15.628Z,40.33
2022-10-21T20:31:42.404Z,42.65
2022-10-21T20:34:14.661Z,40.30
2022-10-21T20:36:41.529Z,40.17
2022-10-21T20:39:08.484Z,41.45
2022-10-21T20:41:35.795Z,39.70
2022-10-21T20:44:07.871Z,43.17
2022-10-21T20:46:35.746Z,42.87
2022-10-21T20:49:05.488Z,51.72
2022-10-21T20:51:34.242Z,46.55
2022-10-21T20:54:08.093Z,53.55
2022-10-21T20:56:37.771Z,55.13
2022-10-21T20:59:05.879Z,50.90
2022-10-21T21:01:35.967Z,53.65
2022-10-21T21:04:07.064Z,59.03
2022-10-21T21:05:42.117Z,0
2022-10-21T21:10:05.220Z,0
2022-10-21T21:12:04.317Z,62.33
2022-10-21T21:14:31.750Z,59.20
2022-10-21T21:16:58.474Z,55.53
2022-10-21T21:19:25.198Z,61.20
2022-10-21T21:21:52.213Z,59.22
2022-10-21T21:24:18.934Z,55.30
2022-10-21T21:26:46.000Z,61.70
2022-10-21T21:29:13.238Z,59.13
2022-10-21T21:31:40.764Z,50.73
2022-10-21T21:34:08.631Z,62.00
2022-10-21T21:36:35.616Z,52.35
2022-10-21T21:39:02.796Z,53.70
2022-10-21T21:41:29.655Z,53.50
2022-10-21T21:43:56.425Z,55.65
2022-10-21T21:46:24.163Z,52.95
2022-10-21T21:48:54.872Z,56.17
2022-10-21T21:51:23.569Z,57.92
2022-10-21T21:53:50.519Z,57.90
2022-10-21T21:56:18.528Z,52.50
2022-10-21T21:58:46.956Z,59.00
2022-10-21T22:01:19.981Z,58.33
2022-10-21T22:03:48.011Z,56.28
2022-10-21T22:06:15.741Z,58.75
2022-10-21T22:08:42.951Z,66.95
2022-10-21T22:11:12.362Z,72.93
2022-10-21T22:13:40.007Z,64.57
2022-10-21T22:15:50.868Z,0
2022-10-21T22:16:08.860Z,63.72
2022-10-21T22:18:35.948Z,67.80
2022-10-21T22:23:55.616Z,73.28
2022-10-21T22:26:22.401Z,75.97
2022-10-21T22:28:49.311Z,68.68
2022-10-21T22:31:17.712Z,74.60
2022-10-21T22:33:45.394Z,73.35
2022-10-21T22:36:12.148Z,70.75
2022-10-21T22:38:38.927Z,74.07
2022-10-21T22:41:08.580Z,71.82
2022-10-21T22:43:39.114Z,72.72
2022-10-21T22:46:21.429Z,80.35
2022-10-21T22:51:39.314Z,91.45
2022-10-21T22:56:52.773Z,77.53
2022-10-21T23:02:06.618Z,85.90
2022-10-21T23:04:33.351Z,82.13
2022-10-21T23:07:00.084Z,216.90
2022-10-21T23:09:26.832Z,84.20
2022-10-21T23:11:53.529Z,80.32
2022-10-21T23:14:11.104Z,0
2022-10-21T23:16:47.111Z,88.75
2022-10-21T23:19:13.859Z,95.07
2022-10-21T23:24:07.843Z,96.55
2022-10-21T23:26:35.132Z,91.70
2022-10-21T23:29:02.057Z,91.53
2022-10-21T23:31:28.756Z,118.20
2022-10-21T23:33:55.500Z,97.07
2022-10-21T23:39:11.056Z,109.38
2022-10-21T23:44:24.581Z,92.60
2022-10-21T23:49:38.002Z,96.70
2022-10-21T23:54:51.476Z,107.35
2022-10-21T23:57:18.226Z,101.83
2022-10-21T23:59:44.971Z,125.65
